sensor_id;sensor_type;location;lat;lon;timestamp;temperature;humidity
26691;DHT22;14307;51.718;8.938;2023-11-19T00:00:08;7.30;99.90
26691;DHT22;14307;51.718;8.938;2023-11-19T00:02:39;7.30;99.90
26691;DHT22;14307;51.718;8.938;2023-11-19T00:05:07;7.40;99.90
26691;DHT22;14307;51.718;8.938;2023-11-19T00:07:38;7.40;99.90
26691;DHT22;14307;51.718;8.938;2023-11-19T00:10:13;7.40;99.90
26691;DHT22;14307;51.718;8.938;2023-11-19T00:12:43;7.40;99.90
26691;DHT22;14307;51.718;8.938;2023-11-19T00:15:11;7.40;99.90
26691;DHT22;14307;51.718;8.938;2023-11-19T00:17:42;7.50;99.90
26691;DHT22;14307;51.718;8.938;2023-11-19T00:20:15;7.50;99.90
26691;DHT22;14307;51.718;8.938;2023-11-19T00:22:43;7.50;99.90
26691;DHT22;14307;51.718;8.938;2023-11-19T00:25:12;7.50;99.90
26691;DHT22;14307;51.718;8.938;2023-11-19T00:27:39;7.50;99.90
26691;DHT22;14307;51.718;8.938;2023-11-19T00:30:06;7.50;99.90
26691;DHT22;14307;51.718;8.938;2023-11-19T00:32:34;7.60;99.90
26691;DHT22;14307;51.718;8.938;2023-11-19T00:35:02;7.60;99.90
26691;DHT22;14307;51.718;8.938;2023-11-19T00:37:29;7.60;99.90
26691;DHT22;14307;51.718;8.938;2023-11-19T00:39:56;7.70;99.90
26691;DHT22;14307;51.718;8.938;2023-11-19T00:42:23;7.70;99.90
26691;DHT22;14307;51.718;8.938;2023-11-19T00:44:51;7.80;99.90
26691;DHT22;14307;51.718;8.938;2023-11-19T00:47:18;7.80;99.90
26691;DHT22;14307;51.718;8.938;2023-11-19T00:49:48;7.80;99.90
26691;DHT22;14307;51.718;8.938;2023-11-19T00:52:17;7.80;99.90
26691;DHT22;14307;51.718;8.938;2023-11-19T00:54:45;7.90;99.90
26691;DHT22;14307;51.718;8.938;2023-11-19T00:57:12;7.90;99.90
26691;DHT22;14307;51.718;8.938;2023-11-19T00:59:44;7.90;99.90
26691;DHT22;14307;51.718;8.938;2023-11-19T01:02:11;7.90;99.90
26691;DHT22;14307;51.718;8.938;2023-11-19T01:04:38;7.90;99.90
26691;DHT22;14307;51.718;8.938;2023-11-19T01:07:05;8.00;99.90
26691;DHT22;14307;51.718;8.938;2023-11-19T01:09:41;8.00;99.90
26691;DHT22;14307;51.718;8.938;2023-11-19T01:12:09;8.00;99.90
26691;DHT22;14307;51.718;8.938;2023-11-19T01:14:37;8.00;99.90
26691;DHT22;14307;51.718;8.938;2023-11-19T01:17:03;8.00;99.90
26691;DHT22;14307;51.718;8.938;2023-11-19T01:19:31;8.10;99.90
26691;DHT22;14307;51.718;8.938;2023-11-19T01:21:58;8.10;99.90
26691;DHT22;14307;51.718;8.938;2023-11-19T01:24:25;8.20;99.90
26691;DHT22;14307;51.718;8.938;2023-11-19T01:26:55;8.20;99.90
26691;DHT22;14307;51.718;8.938;2023-11-19T01:29:22;8.20;99.90
26691;DHT22;14307;51.718;8.938;2023-11-19T01:31:49;8.30;99.90
26691;DHT22;14307;51.718;8.938;2023-11-19T01:34:18;8.40;99.90
26691;DHT22;14307;51.718;8.938;2023-11-19T01:36:46;8.50;99.90
26691;DHT22;14307;51.718;8.938;2023-11-19T01:39:15;8.50;99.90
26691;DHT22;14307;51.718;8.938;2023-11-19T01:41:46;8.70;99.90
26691;DHT22;14307;51.718;8.938;2023-11-19T01:44:13;8.80;99.90
26691;DHT22;14307;51.718;8.938;2023-11-19T01:46:42;8.90;99.90
26691;DHT22;14307;51.718;8.938;2023-11-19T01:49:11;9.00;99.90
26691;DHT22;14307;51.718;8.938;2023-11-19T01:51:39;9.10;99.90
26691;DHT22;14307;51.718;8.938;2023-11-19T01:54:07;9.10;99.90
26691;DHT22;14307;51.718;8.938;2023-11-19T01:56:36;9.10;99.90
26691;DHT22;14307;51.718;8.938;2023-11-19T01:59:03;9.20;99.90
26691;DHT22;14307;51.718;8.938;2023-11-19T02:01:30;9.30;99.90
26691;DHT22;14307;51.718;8.938;2023-11-19T02:03:59;9.40;99.90
26691;DHT22;14307;51.718;8.938;2023-11-19T02:06:27;9.70;99.90
26691;DHT22;14307;51.718;8.938;2023-11-19T02:08:55;9.90;99.90
26691;DHT22;14307;51.718;8.938;2023-11-19T02:11:21;10.00;99.90
26691;DHT22;14307;51.718;8.938;2023-11-19T02:13:48;10.10;99.90
26691;DHT22;14307;51.718;8.938;2023-11-19T02:16:15;10.10;99.90
26691;DHT22;14307;51.718;8.938;2023-11-19T02:18:42;10.20;99.90
26691;DHT22;14307;51.718;8.938;2023-11-19T02:21:09;10.20;99.90
26691;DHT22;14307;51.718;8.938;2023-11-19T02:23:37;10.30;99.90
26691;DHT22;14307;51.718;8.938;2023-11-19T02:28:41;10.30;99.90
26691;DHT22;14307;51.718;8.938;2023-11-19T02:31:10;10.40;99.90
26691;DHT22;14307;51.718;8.938;2023-11-19T02:33:38;10.40;99.90
26691;DHT22;14307;51.718;8.938;2023-11-19T02:36:06;10.40;99.90
26691;DHT22;14307;51.718;8.938;2023-11-19T02:38:34;10.40;99.90
26691;DHT22;14307;51.718;8.938;2023-11-19T02:41:03;10.50;99.90
26691;DHT22;14307;51.718;8.938;2023-11-19T02:43:33;10.50;99.90
26691;DHT22;14307;51.718;8.938;2023-11-19T02:46:01;10.50;99.90
26691;DHT22;14307;51.718;8.938;2023-11-19T02:48:41;10.50;99.90
26691;DHT22;14307;51.718;8.938;2023-11-19T02:51:10;10.60;99.90
26691;DHT22;14307;51.718;8.938;2023-11-19T02:53:38;10.60;99.90
26691;DHT22;14307;51.718;8.938;2023-11-19T02:56:06;10.60;99.90
26691;DHT22;14307;51.718;8.938;2023-11-19T02:58:43;10.70;99.90
26691;DHT22;14307;51.718;8.938;2023-11-19T03:01:11;10.70;99.90
26691;DHT22;14307;51.718;8.938;2023-11-19T03:03:50;10.80;99.90
26691;DHT22;14307;51.718;8.938;2023-11-19T03:06:24;10.80;99.90
26691;DHT22;14307;51.718;8.938;2023-11-19T03:08:51;10.80;99.90
26691;DHT22;14307;51.718;8.938;2023-11-19T03:11:18;10.80;99.90
26691;DHT22;14307;51.718;8.938;2023-11-19T03:13:45;10.90;99.90
26691;DHT22;14307;51.718;8.938;2023-11-19T03:16:13;10.90;99.90
26691;DHT22;14307;51.718;8.938;2023-11-19T03:18:40;10.90;99.90
26691;DHT22;14307;51.718;8.938;2023-11-19T03:21:07;10.90;99.90
26691;DHT22;14307;51.718;8.938;2023-11-19T03:23:36;11.00;99.90
26691;DHT22;14307;51.718;8.938;2023-11-19T03:26:04;10.90;99.90
26691;DHT22;14307;51.718;8.938;2023-11-19T03:28:32;10.90;99.90
26691;DHT22;14307;51.718;8.938;2023-11-19T03:30:59;10.90;99.90
26691;DHT22;14307;51.718;8.938;2023-11-19T03:33:26;10.90;99.90
26691;DHT22;14307;51.718;8.938;2023-11-19T03:35:56;10.90;99.90
26691;DHT22;14307;51.718;8.938;2023-11-19T03:38:24;10.90;99.90
26691;DHT22;14307;51.718;8.938;2023-11-19T03:40:51;11.00;99.90
26691;DHT22;14307;51.718;8.938;2023-11-19T03:43:18;11.00;99.90
26691;DHT22;14307;51.718;8.938;2023-11-19T03:45:47;11.00;99.90
26691;DHT22;14307;51.718;8.938;2023-11-19T03:48:14;11.10;99.90
26691;DHT22;14307;51.718;8.938;2023-11-19T03:50:45;11.10;99.90
26691;DHT22;14307;51.718;8.938;2023-11-19T03:53:12;11.10;99.90
26691;DHT22;14307;51.718;8.938;2023-11-19T03:55:39;11.10;99.90
26691;DHT22;14307;51.718;8.938;2023-11-19T03:58:05;11.10;99.90
26691;DHT22;14307;51.718;8.938;2023-11-19T04:00:33;11.10;99.90
26691;DHT22;14307;51.718;8.938;2023-11-19T04:02:59;11.20;99.90
26691;DHT22;14307;51.718;8.938;2023-11-19T04:05:27;11.20;99.90
26691;DHT22;14307;51.718;8.938;2023-11-19T04:07:53;11.20;99.90
26691;DHT22;14307;51.718;8.938;2023-11-19T04:10:20;11.20;99.90
26691;DHT22;14307;51.718;8.938;2023-11-19T04:12:49;11.20;99.90
26691;DHT22;14307;51.718;8.938;2023-11-19T04:15:16;11.20;99.90
26691;DHT22;14307;51.718;8.938;2023-11-19T04:17:42;11.20;99.90
26691;DHT22;14307;51.718;8.938;2023-11-19T04:20:10;11.30;99.90
26691;DHT22;14307;51.718;8.938;2023-11-19T04:22:40;11.30;99.90
26691;DHT22;14307;51.718;8.938;2023-11-19T04:25:07;11.30;99.90
26691;DHT22;14307;51.718;8.938;2023-11-19T04:27:34;11.30;99.90
26691;DHT22;14307;51.718;8.938;2023-11-19T04:30:01;11.30;99.90
26691;DHT22;14307;51.718;8.938;2023-11-19T04:32:30;11.30;99.90
26691;DHT22;14307;51.718;8.938;2023-11-19T04:34:57;11.30;99.90
26691;DHT22;14307;51.718;8.938;2023-11-19T04:37:23;11.30;99.90
26691;DHT22;14307;51.718;8.938;2023-11-19T04:39:51;11.30;99.90
26691;DHT22;14307;51.718;8.938;2023-11-19T04:42:18;11.30;99.90
26691;DHT22;14307;51.718;8.938;2023-11-19T04:44:45;11.30;99.90
26691;DHT22;14307;51.718;8.938;2023-11-19T04:47:11;11.30;99.90
26691;DHT22;14307;51.718;8.938;2023-11-19T04:49:42;11.30;99.90
26691;DHT22;14307;51.718;8.938;2023-11-19T04:52:12;11.40;99.90
26691;DHT22;14307;51.718;8.938;2023-11-19T04:54:43;11.40;99.90
26691;DHT22;14307;51.718;8.938;2023-11-19T04:57:11;11.40;99.90
26691;DHT22;14307;51.718;8.938;2023-11-19T04:59:38;11.50;99.90
26691;DHT22;14307;51.718;8.938;2023-11-19T05:02:05;11.50;99.90
26691;DHT22;14307;51.718;8.938;2023-11-19T05:04:32;11.40;99.90
26691;DHT22;14307;51.718;8.938;2023-11-19T05:06:59;11.50;99.90
26691;DHT22;14307;51.718;8.938;2023-11-19T05:09:25;11.40;99.90
26691;DHT22;14307;51.718;8.938;2023-11-19T05:11:52;11.40;99.90
26691;DHT22;14307;51.718;8.938;2023-11-19T05:14:19;11.40;99.90
26691;DHT22;14307;51.718;8.938;2023-11-19T05:16:47;11.40;99.90
26691;DHT22;14307;51.718;8.938;2023-11-19T05:19:14;11.40;99.90
26691;DHT22;14307;51.718;8.938;2023-11-19T05:21:44;11.40;99.90
26691;DHT22;14307;51.718;8.938;2023-11-19T05:24:11;11.50;99.90
26691;DHT22;14307;51.718;8.938;2023-11-19T05:26:41;11.50;99.90
26691;DHT22;14307;51.718;8.938;2023-11-19T05:29:07;11.50;99.90
26691;DHT22;14307;51.718;8.938;2023-11-19T05:31:34;11.50;99.90
26691;DHT22;14307;51.718;8.938;2023-11-19T05:34:03;11.40;99.90
26691;DHT22;14307;51.718;8.938;2023-11-19T05:36:30;11.40;99.90
26691;DHT22;14307;51.718;8.938;2023-11-19T05:38:57;11.40;99.90
26691;DHT22;14307;51.718;8.938;2023-11-19T05:41:24;11.40;99.90
26691;DHT22;14307;51.718;8.938;2023-11-19T05:43:51;11.40;99.90
26691;DHT22;14307;51.718;8.938;2023-11-19T05:46:18;11.40;99.90
26691;DHT22;14307;51.718;8.938;2023-11-19T05:48:47;11.30;99.90
26691;DHT22;14307;51.718;8.938;2023-11-19T05:51:14;11.30;99.90
26691;DHT22;14307;51.718;8.938;2023-11-19T05:53:42;11.20;99.90
26691;DHT22;14307;51.718;8.938;2023-11-19T05:56:09;11.10;99.90
26691;DHT22;14307;51.718;8.938;2023-11-19T05:58:38;11.10;99.90
26691;DHT22;14307;51.718;8.938;2023-11-19T06:01:06;11.10;99.90
26691;DHT22;14307;51.718;8.938;2023-11-19T06:03:35;11.10;99.90
26691;DHT22;14307;51.718;8.938;2023-11-19T06:06:02;11.00;99.90
26691;DHT22;14307;51.718;8.938;2023-11-19T06:08:29;11.00;99.90
26691;DHT22;14307;51.718;8.938;2023-11-19T06:10:57;10.90;99.90
26691;DHT22;14307;51.718;8.938;2023-11-19T06:13:24;11.00;99.90
26691;DHT22;14307;51.718;8.938;2023-11-19T06:15:52;10.90;99.90
26691;DHT22;14307;51.718;8.938;2023-11-19T06:18:18;10.90;99.90
26691;DHT22;14307;51.718;8.938;2023-11-19T06:20:47;10.90;99.90
26691;DHT22;14307;51.718;8.938;2023-11-19T06:23:14;10.90;99.90
26691;DHT22;14307;51.718;8.938;2023-11-19T06:25:41;10.90;99.90
26691;DHT22;14307;51.718;8.938;2023-11-19T06:28:07;10.90;99.90
26691;DHT22;14307;51.718;8.938;2023-11-19T06:30:34;10.90;99.90
26691;DHT22;14307;51.718;8.938;2023-11-19T06:33:02;10.90;99.90
26691;DHT22;14307;51.718;8.938;2023-11-19T06:35:30;10.90;99.90
26691;DHT22;14307;51.718;8.938;2023-11-19T06:38:03;10.90;99.90
26691;DHT22;14307;51.718;8.938;2023-11-19T06:40:32;10.90;99.90
26691;DHT22;14307;51.718;8.938;2023-11-19T06:43:00;10.90;99.90
26691;DHT22;14307;51.718;8.938;2023-11-19T06:45:27;10.90;99.90
26691;DHT22;14307;51.718;8.938;2023-11-19T06:47:56;11.00;99.90
26691;DHT22;14307;51.718;8.938;2023-11-19T06:50:22;10.90;99.90
26691;DHT22;14307;51.718;8.938;2023-11-19T06:52:50;10.90;99.90
26691;DHT22;14307;51.718;8.938;2023-11-19T06:55:17;10.90;99.90
26691;DHT22;14307;51.718;8.938;2023-11-19T06:57:43;10.90;99.90
26691;DHT22;14307;51.718;8.938;2023-11-19T07:00:10;10.80;99.90
26691;DHT22;14307;51.718;8.938;2023-11-19T07:02:38;10.80;99.90
26691;DHT22;14307;51.718;8.938;2023-11-19T07:05:06;10.80;99.90
26691;DHT22;14307;51.718;8.938;2023-11-19T07:07:34;10.80;99.90
26691;DHT22;14307;51.718;8.938;2023-11-19T07:10:02;10.70;99.90
26691;DHT22;14307;51.718;8.938;2023-11-19T07:12:30;10.70;99.90
26691;DHT22;14307;51.718;8.938;2023-11-19T07:14:57;10.70;99.90
26691;DHT22;14307;51.718;8.938;2023-11-19T07:17:24;10.70;99.90
26691;DHT22;14307;51.718;8.938;2023-11-19T07:19:51;10.70;99.90
26691;DHT22;14307;51.718;8.938;2023-11-19T07:22:18;10.70;99.90
26691;DHT22;14307;51.718;8.938;2023-11-19T07:24:45;10.70;99.90
26691;DHT22;14307;51.718;8.938;2023-11-19T07:27:11;10.70;99.90
26691;DHT22;14307;51.718;8.938;2023-11-19T07:29:39;10.70;99.90
26691;DHT22;14307;51.718;8.938;2023-11-19T07:32:06;10.80;99.90
26691;DHT22;14307;51.718;8.938;2023-11-19T07:34:34;10.80;99.90
26691;DHT22;14307;51.718;8.938;2023-11-19T07:37:01;10.80;99.90
26691;DHT22;14307;51.718;8.938;2023-11-19T07:39:29;10.80;99.90
26691;DHT22;14307;51.718;8.938;2023-11-19T07:41:56;10.80;99.90
26691;DHT22;14307;51.718;8.938;2023-11-19T07:44:24;10.80;99.90
26691;DHT22;14307;51.718;8.938;2023-11-19T07:46:51;10.80;99.90
26691;DHT22;14307;51.718;8.938;2023-11-19T07:49:18;10.80;99.90
26691;DHT22;14307;51.718;8.938;2023-11-19T07:51:45;10.80;99.90
26691;DHT22;14307;51.718;8.938;2023-11-19T07:54:11;10.70;99.90
26691;DHT22;14307;51.718;8.938;2023-11-19T07:56:40;10.80;99.90
26691;DHT22;14307;51.718;8.938;2023-11-19T07:59:10;10.80;99.90
26691;DHT22;14307;51.718;8.938;2023-11-19T08:01:38;10.80;99.90
26691;DHT22;14307;51.718;8.938;2023-11-19T08:04:07;10.80;99.90
26691;DHT22;14307;51.718;8.938;2023-11-19T08:06:35;10.80;99.90
26691;DHT22;14307;51.718;8.938;2023-11-19T08:09:02;10.80;99.90
26691;DHT22;14307;51.718;8.938;2023-11-19T08:11:28;10.90;99.90
26691;DHT22;14307;51.718;8.938;2023-11-19T08:13:55;11.00;99.90
26691;DHT22;14307;51.718;8.938;2023-11-19T08:16:22;11.10;99.90
26691;DHT22;14307;51.718;8.938;2023-11-19T08:18:49;11.20;99.90
26691;DHT22;14307;51.718;8.938;2023-11-19T08:21:15;11.30;99.90
26691;DHT22;14307;51.718;8.938;2023-11-19T08:23:42;11.30;99.90
26691;DHT22;14307;51.718;8.938;2023-11-19T08:26:09;11.30;99.90
26691;DHT22;14307;51.718;8.938;2023-11-19T08:28:37;11.30;99.90
26691;DHT22;14307;51.718;8.938;2023-11-19T08:31:04;11.20;99.90
26691;DHT22;14307;51.718;8.938;2023-11-19T08:33:32;11.10;99.90
26691;DHT22;14307;51.718;8.938;2023-11-19T08:35:59;11.00;99.90
26691;DHT22;14307;51.718;8.938;2023-11-19T08:38:27;11.00;99.90
26691;DHT22;14307;51.718;8.938;2023-11-19T08:40:56;11.00;99.90
26691;DHT22;14307;51.718;8.938;2023-11-19T08:43:27;10.90;99.90
26691;DHT22;14307;51.718;8.938;2023-11-19T08:45:54;10.90;99.90
26691;DHT22;14307;51.718;8.938;2023-11-19T08:48:21;10.90;99.90
26691;DHT22;14307;51.718;8.938;2023-11-19T08:50:48;11.00;99.90
26691;DHT22;14307;51.718;8.938;2023-11-19T08:53:15;11.00;99.90
26691;DHT22;14307;51.718;8.938;2023-11-19T08:55:45;11.00;99.90
26691;DHT22;14307;51.718;8.938;2023-11-19T08:58:12;11.20;99.90
26691;DHT22;14307;51.718;8.938;2023-11-19T09:00:39;11.20;99.90
26691;DHT22;14307;51.718;8.938;2023-11-19T09:03:06;11.20;99.90
26691;DHT22;14307;51.718;8.938;2023-11-19T09:05:33;11.30;99.90
26691;DHT22;14307;51.718;8.938;2023-11-19T09:08:00;11.30;99.90
26691;DHT22;14307;51.718;8.938;2023-11-19T09:10:27;11.40;99.90
26691;DHT22;14307;51.718;8.938;2023-11-19T09:12:56;11.50;99.90
26691;DHT22;14307;51.718;8.938;2023-11-19T09:15:24;11.60;99.90
26691;DHT22;14307;51.718;8.938;2023-11-19T09:17:51;11.50;99.90
26691;DHT22;14307;51.718;8.938;2023-11-19T09:20:18;11.60;99.90
26691;DHT22;14307;51.718;8.938;2023-11-19T09:22:45;11.60;99.90
26691;DHT22;14307;51.718;8.938;2023-11-19T09:25:12;11.60;99.90
26691;DHT22;14307;51.718;8.938;2023-11-19T09:27:44;11.60;99.90
26691;DHT22;14307;51.718;8.938;2023-11-19T09:30:11;11.50;99.90
26691;DHT22;14307;51.718;8.938;2023-11-19T09:32:38;11.50;99.90
26691;DHT22;14307;51.718;8.938;2023-11-19T09:35:06;11.60;99.90
26691;DHT22;14307;51.718;8.938;2023-11-19T09:37:34;11.60;99.90
26691;DHT22;14307;51.718;8.938;2023-11-19T09:40:00;11.50;99.90
26691;DHT22;14307;51.718;8.938;2023-11-19T09:42:27;11.50;99.90
26691;DHT22;14307;51.718;8.938;2023-11-19T09:44:54;11.50;99.90
26691;DHT22;14307;51.718;8.938;2023-11-19T09:47:23;11.60;99.90
26691;DHT22;14307;51.718;8.938;2023-11-19T09:49:51;11.60;99.90
26691;DHT22;14307;51.718;8.938;2023-11-19T09:52:19;11.60;99.90
26691;DHT22;14307;51.718;8.938;2023-11-19T09:54:45;11.70;99.90
26691;DHT22;14307;51.718;8.938;2023-11-19T09:57:14;11.80;99.90
26691;DHT22;14307;51.718;8.938;2023-11-19T09:59:43;11.80;99.90
26691;DHT22;14307;51.718;8.938;2023-11-19T10:02:12;11.70;99.90
26691;DHT22;14307;51.718;8.938;2023-11-19T10:04:42;11.50;99.90
26691;DHT22;14307;51.718;8.938;2023-11-19T10:07:10;11.20;99.90
26691;DHT22;14307;51.718;8.938;2023-11-19T10:09:37;11.00;99.90
26691;DHT22;14307;51.718;8.938;2023-11-19T10:12:04;10.90;99.90
26691;DHT22;14307;51.718;8.938;2023-11-19T10:14:32;10.80;99.90
26691;DHT22;14307;51.718;8.938;2023-11-19T10:17:03;10.70;99.90
26691;DHT22;14307;51.718;8.938;2023-11-19T10:19:38;10.70;99.90
26691;DHT22;14307;51.718;8.938;2023-11-19T10:22:06;10.70;99.90
26691;DHT22;14307;51.718;8.938;2023-11-19T10:24:36;10.60;99.90
26691;DHT22;14307;51.718;8.938;2023-11-19T10:27:09;10.60;99.90
26691;DHT22;14307;51.718;8.938;2023-11-19T10:29:37;10.60;99.90
26691;DHT22;14307;51.718;8.938;2023-11-19T10:32:04;10.60;99.90
26691;DHT22;14307;51.718;8.938;2023-11-19T10:34:51;10.70;99.90
26691;DHT22;14307;51.718;8.938;2023-11-19T10:37:28;11.00;99.90
26691;DHT22;14307;51.718;8.938;2023-11-19T10:39:59;11.20;99.90
26691;DHT22;14307;51.718;8.938;2023-11-19T10:42:26;11.30;99.90
26691;DHT22;14307;51.718;8.938;2023-11-19T10:44:53;11.40;99.90
26691;DHT22;14307;51.718;8.938;2023-11-19T10:47:23;11.50;99.90
26691;DHT22;14307;51.718;8.938;2023-11-19T10:49:53;11.80;99.90
26691;DHT22;14307;51.718;8.938;2023-11-19T10:52:19;11.80;99.90
26691;DHT22;14307;51.718;8.938;2023-11-19T10:54:51;11.90;99.90
26691;DHT22;14307;51.718;8.938;2023-11-19T10:57:20;12.10;99.90
26691;DHT22;14307;51.718;8.938;2023-11-19T10:59:55;12.10;99.90
26691;DHT22;14307;51.718;8.938;2023-11-19T11:02:27;12.20;99.90
26691;DHT22;14307;51.718;8.938;2023-11-19T11:04:55;12.30;99.90
26691;DHT22;14307;51.718;8.938;2023-11-19T11:07:24;12.30;99.90
26691;DHT22;14307;51.718;8.938;2023-11-19T11:10:05;12.40;99.90
26691;DHT22;14307;51.718;8.938;2023-11-19T11:12:37;12.30;99.90
26691;DHT22;14307;51.718;8.938;2023-11-19T11:15:07;12.30;99.90
26691;DHT22;14307;51.718;8.938;2023-11-19T11:17:36;12.10;99.90
26691;DHT22;14307;51.718;8.938;2023-11-19T11:20:08;12.00;99.90
26691;DHT22;14307;51.718;8.938;2023-11-19T11:22:57;12.00;99.90
26691;DHT22;14307;51.718;8.938;2023-11-19T11:25:40;12.00;99.90
26691;DHT22;14307;51.718;8.938;2023-11-19T11:36:54;11.50;99.90
26691;DHT22;14307;51.718;8.938;2023-11-19T11:39:28;11.40;99.90
26691;DHT22;14307;51.718;8.938;2023-11-19T11:47:49;11.40;99.90
26691;DHT22;14307;51.718;8.938;2023-11-19T11:50:18;11.50;99.90
26691;DHT22;14307;51.718;8.938;2023-11-19T11:55:36;11.50;99.90
26691;DHT22;14307;51.718;8.938;2023-11-19T11:58:05;11.40;99.90
26691;DHT22;14307;51.718;8.938;2023-11-19T12:00:36;11.40;99.90
26691;DHT22;14307;51.718;8.938;2023-11-19T12:03:05;11.40;99.90
26691;DHT22;14307;51.718;8.938;2023-11-19T12:05:41;11.10;99.90
26691;DHT22;14307;51.718;8.938;2023-11-19T12:08:14;11.10;99.90
26691;DHT22;14307;51.718;8.938;2023-11-19T12:10:49;11.00;99.90
26691;DHT22;14307;51.718;8.938;2023-11-19T12:13:17;10.90;99.90
26691;DHT22;14307;51.718;8.938;2023-11-19T12:18:30;10.60;99.90
26691;DHT22;14307;51.718;8.938;2023-11-19T12:20:59;10.60;99.90
26691;DHT22;14307;51.718;8.938;2023-11-19T12:23:29;10.40;99.90
26691;DHT22;14307;51.718;8.938;2023-11-19T12:25:57;10.30;99.90
26691;DHT22;14307;51.718;8.938;2023-11-19T12:28:25;10.20;99.90
26691;DHT22;14307;51.718;8.938;2023-11-19T12:31:09;10.20;99.90
26691;DHT22;14307;51.718;8.938;2023-11-19T12:33:36;10.20;99.90
26691;DHT22;14307;51.718;8.938;2023-11-19T12:36:05;10.20;99.90
26691;DHT22;14307;51.718;8.938;2023-11-19T12:38:32;10.30;99.90
26691;DHT22;14307;51.718;8.938;2023-11-19T12:41:07;10.30;99.90
26691;DHT22;14307;51.718;8.938;2023-11-19T12:43:35;10.30;99.90
26691;DHT22;14307;51.718;8.938;2023-11-19T12:48:51;10.40;99.90
26691;DHT22;14307;51.718;8.938;2023-11-19T12:51:21;10.40;99.90
26691;DHT22;14307;51.718;8.938;2023-11-19T12:53:52;10.40;99.90
26691;DHT22;14307;51.718;8.938;2023-11-19T12:56:24;10.50;99.90
26691;DHT22;14307;51.718;8.938;2023-11-19T12:58:51;10.60;99.90
26691;DHT22;14307;51.718;8.938;2023-11-19T13:01:21;10.70;99.90
26691;DHT22;14307;51.718;8.938;2023-11-19T13:03:48;10.80;99.90
26691;DHT22;14307;51.718;8.938;2023-11-19T13:06:17;10.90;99.90
26691;DHT22;14307;51.718;8.938;2023-11-19T13:08:47;11.00;99.90
26691;DHT22;14307;51.718;8.938;2023-11-19T13:11:34;11.10;99.90
26691;DHT22;14307;51.718;8.938;2023-11-19T13:14:05;11.20;99.90
26691;DHT22;14307;51.718;8.938;2023-11-19T13:16:32;11.30;99.90
26691;DHT22;14307;51.718;8.938;2023-11-19T13:19:00;11.20;99.90
26691;DHT22;14307;51.718;8.938;2023-11-19T13:21:27;11.30;99.90
26691;DHT22;14307;51.718;8.938;2023-11-19T13:23:56;11.30;99.90
26691;DHT22;14307;51.718;8.938;2023-11-19T13:26:23;11.30;99.90
26691;DHT22;14307;51.718;8.938;2023-11-19T13:28:50;11.30;99.90
26691;DHT22;14307;51.718;8.938;2023-11-19T13:31:16;11.30;99.90
26691;DHT22;14307;51.718;8.938;2023-11-19T13:33:44;11.30;99.90
26691;DHT22;14307;51.718;8.938;2023-11-19T13:36:11;11.30;99.90
26691;DHT22;14307;51.718;8.938;2023-11-19T13:38:43;11.30;99.90
26691;DHT22;14307;51.718;8.938;2023-11-19T13:41:12;11.30;99.90
26691;DHT22;14307;51.718;8.938;2023-11-19T13:43:39;11.30;99.90
26691;DHT22;14307;51.718;8.938;2023-11-19T13:46:07;11.30;99.90
26691;DHT22;14307;51.718;8.938;2023-11-19T13:48:36;11.20;99.90
26691;DHT22;14307;51.718;8.938;2023-11-19T13:51:04;11.20;99.90
26691;DHT22;14307;51.718;8.938;2023-11-19T13:53:32;11.20;99.90
26691;DHT22;14307;51.718;8.938;2023-11-19T13:56:17;11.20;99.90
26691;DHT22;14307;51.718;8.938;2023-11-19T13:58:45;11.20;99.90
26691;DHT22;14307;51.718;8.938;2023-11-19T14:01:12;11.20;99.90
26691;DHT22;14307;51.718;8.938;2023-11-19T14:03:40;11.20;99.90
26691;DHT22;14307;51.718;8.938;2023-11-19T14:06:09;11.20;99.90
26691;DHT22;14307;51.718;8.938;2023-11-19T14:08:37;11.30;99.90
26691;DHT22;14307;51.718;8.938;2023-11-19T14:11:05;11.20;99.90
26691;DHT22;14307;51.718;8.938;2023-11-19T14:13:32;11.20;99.90
26691;DHT22;14307;51.718;8.938;2023-11-19T14:15:59;11.20;99.90
26691;DHT22;14307;51.718;8.938;2023-11-19T14:18:29;11.10;99.90
26691;DHT22;14307;51.718;8.938;2023-11-19T14:20:56;11.10;99.90
26691;DHT22;14307;51.718;8.938;2023-11-19T14:23:23;11.10;99.90
26691;DHT22;14307;51.718;8.938;2023-11-19T14:25:50;11.10;99.90
26691;DHT22;14307;51.718;8.938;2023-11-19T14:28:17;11.20;99.90
26691;DHT22;14307;51.718;8.938;2023-11-19T14:30:44;11.10;99.90
26691;DHT22;14307;51.718;8.938;2023-11-19T14:33:13;11.20;99.90
26691;DHT22;14307;51.718;8.938;2023-11-19T14:35:40;11.10;99.90
26691;DHT22;14307;51.718;8.938;2023-11-19T14:38:07;11.10;99.90
26691;DHT22;14307;51.718;8.938;2023-11-19T14:40:38;11.10;99.90
26691;DHT22;14307;51.718;8.938;2023-11-19T14:43:08;11.10;99.90
26691;DHT22;14307;51.718;8.938;2023-11-19T14:45:39;10.90;99.90
26691;DHT22;14307;51.718;8.938;2023-11-19T14:48:15;10.80;99.90
26691;DHT22;14307;51.718;8.938;2023-11-19T14:50:44;10.70;99.90
26691;DHT22;14307;51.718;8.938;2023-11-19T14:53:11;10.50;99.90
26691;DHT22;14307;51.718;8.938;2023-11-19T14:55:38;10.40;99.90
26691;DHT22;14307;51.718;8.938;2023-11-19T14:58:05;10.30;99.90
26691;DHT22;14307;51.718;8.938;2023-11-19T15:00:37;10.20;99.90
26691;DHT22;14307;51.718;8.938;2023-11-19T15:03:04;10.10;99.90
26691;DHT22;14307;51.718;8.938;2023-11-19T15:05:31;10.00;99.90
26691;DHT22;14307;51.718;8.938;2023-11-19T15:07:58;10.00;99.90
26691;DHT22;14307;51.718;8.938;2023-11-19T15:10:25;10.00;99.90
26691;DHT22;14307;51.718;8.938;2023-11-19T15:12:52;10.00;99.90
26691;DHT22;14307;51.718;8.938;2023-11-19T15:15:19;10.00;99.90
26691;DHT22;14307;51.718;8.938;2023-11-19T15:18:02;10.00;99.90
26691;DHT22;14307;51.718;8.938;2023-11-19T15:20:30;10.00;99.90
26691;DHT22;14307;51.718;8.938;2023-11-19T15:22:58;9.90;99.90
26691;DHT22;14307;51.718;8.938;2023-11-19T15:25:24;10.00;99.90
26691;DHT22;14307;51.718;8.938;2023-11-19T15:27:51;10.00;99.90
26691;DHT22;14307;51.718;8.938;2023-11-19T15:30:18;10.00;99.90
26691;DHT22;14307;51.718;8.938;2023-11-19T15:32:45;10.10;99.90
26691;DHT22;14307;51.718;8.938;2023-11-19T15:35:12;10.10;99.90
26691;DHT22;14307;51.718;8.938;2023-11-19T15:37:41;10.20;99.90
26691;DHT22;14307;51.718;8.938;2023-11-19T15:40:11;10.20;99.90
26691;DHT22;14307;51.718;8.938;2023-11-19T15:42:40;10.20;99.90
26691;DHT22;14307;51.718;8.938;2023-11-19T15:45:07;10.30;99.90
26691;DHT22;14307;51.718;8.938;2023-11-19T15:47:34;10.20;99.90
26691;DHT22;14307;51.718;8.938;2023-11-19T15:50:02;10.20;99.90
26691;DHT22;14307;51.718;8.938;2023-11-19T15:52:33;10.30;99.90
26691;DHT22;14307;51.718;8.938;2023-11-19T15:55:00;10.30;99.90
26691;DHT22;14307;51.718;8.938;2023-11-19T15:57:27;10.30;99.90
26691;DHT22;14307;51.718;8.938;2023-11-19T15:59:54;10.40;99.90
26691;DHT22;14307;51.718;8.938;2023-11-19T16:02:21;10.30;99.90
26691;DHT22;14307;51.718;8.938;2023-11-19T16:04:48;10.40;99.90